ADDS METAR Data INFO
IDs: Format: Raw Decoded Include TAF

Data at: 2254 UTC 22 Jun 2018

KBOW 222235Z AUTO 33004KT 10SM CLR 30/22 A2994 RMK AO2 LTG DSNT N-SE
KBOW 222215Z AUTO 23004KT 10SM FEW049 FEW060 29/23 A2994 RMK AO2 LTG DSNT N-SE
KBOW 222155Z AUTO 28007KT 10SM VCTS FEW050 29/22 A2994 RMK AO2 LTG DSNT ALQDS
KBOW 222135Z AUTO 32012KT 10SM VCTS FEW055 30/23 A2994 RMK AO2 LTG DSNT ALQDS
KBOW 222050Z 31010KT 10SM FEW080 33/22 A2994
KBOW 221950Z 32011KT 10SM FEW050 32/21 A2995
KBOW 221850Z 31007KT 10SM SKC 32/23 A2997
KBOW 221750Z 29007KT 10SM SKC 31/23 A2999
KBOW 221659Z 23006KT 10SM SKC 30/23 A3000
KBOW 221559Z 26011G17KT 10SM TS BKN030 27/23 A3003
KBOW 221450Z 30007KT 10SM SCT022 30/23 A3001
KBOW 221352Z 31007KT 10SM SCT022 29/24 A3001
KBOW 221250Z 30004KT 10SM SKC 26/26 A3001
KBOW 221155Z 00000KT 9SM SCT030 24/24 A3000
KBOW 221130Z 00000KT 7SM SCT029 24/24 A2999
KBOW 221115Z AUTO 00000KT 9SM CLR 23/ A2998 RMK AO2
KBOW 221055Z AUTO 00000KT 6SM HZ CLR 23/ A2997 RMK AO2
KBOW 221035Z AUTO 00000KT 8SM FEW020 24/ A2997 RMK AO2
KBOW 221015Z AUTO 00000KT 9SM BKN020 23/ A2996 RMK AO2
KBOW 220955Z AUTO 00000KT 10SM FEW021 23/ A2996 RMK AO2
KBOW 220935Z AUTO 00000KT 8SM CLR 23/ A2995 RMK AO2
KBOW 220855Z AUTO 00000KT 8SM CLR 24/ A2994 RMK AO2
KBOW 220835Z AUTO 00000KT 7SM CLR 23/ A2994 RMK AO2
KBOW 220815Z AUTO 00000KT 9SM CLR 23/ A2994 RMK AO2
KBOW 220755Z AUTO 00000KT 8SM CLR 24/ A2993 RMK AO2
KBOW 220735Z AUTO 00000KT 9SM CLR 24/ A2993 RMK AO2
KBOW 220715Z AUTO 00000KT 8SM CLR 23/ A2994 RMK AO2
KBOW 220655Z AUTO 00000KT 8SM CLR 24/ A2994 RMK AO2
KBOW 220635Z AUTO 00000KT 8SM CLR 24/ A2994 RMK AO2
KBOW 220615Z AUTO 00000KT 10SM CLR 24/ A2995 RMK AO2
KBOW 220555Z AUTO 00000KT 8SM CLR 24/ A2995 RMK AO2
KBOW 220515Z AUTO 18003KT 10SM CLR 24/ A2997 RMK AO2
KBOW 220455Z AUTO 00000KT 10SM CLR 24/ A2998 RMK AO2
KBOW 220435Z AUTO 00000KT 10SM CLR 24/ A2998 RMK AO2
KBOW 220415Z AUTO 16005KT 10SM CLR 24/ A2998 RMK AO2
KBOW 220355Z AUTO 00000KT 10SM CLR 25/25 A2998 RMK AO2
KBOW 220335Z AUTO 27003KT 10SM CLR 25/26 A2997 RMK AO2
KBOW 220315Z AUTO 29004KT 10SM CLR 25/25 A2997 RMK AO2
KBOW 220255Z AUTO VRB03KT 10SM CLR 25/25 A2997 RMK AO2
KBOW 220235Z AUTO 29003KT 10SM CLR 25/25 A2997 RMK AO2
KBOW 220215Z AUTO 24004KT 10SM CLR 24/24 A2996 RMK AO2
KBOW 220155Z AUTO 00000KT 10SM CLR 24/24 A2996 RMK AO2
KBOW 220135Z AUTO 19006KT 10SM FEW037 FEW049 24/24 A2997 RMK AO2 LTG DSNT S
KBOW 220115Z AUTO 18008KT 10SM VCTS FEW005 SCT037 BKN042 24/24 A2996 RMK AO2 LTG DSNT S AND SW
KBOW 220055Z AUTO 16012KT 7SM VCTS RA FEW005 SCT039 BKN049 25/24 A2995 RMK AO2 LTG DSNT S AND SW
KBOW 220035Z AUTO 14009KT 10SM BKN036 BKN048 BKN070 26/23 A2995 RMK AO2
KBOW 220015Z AUTO 14013KT 10SM BKN036 BKN041 OVC046 28/24 A2995 RMK AO2
KBOW 212355Z AUTO 00000KT 10SM SCT036 29/24 A2994 RMK AO2
KBOW 212335Z AUTO 00000KT 10SM CLR 29/24 A2994 RMK AO2 LTG DSNT SE
KBOW 212315Z AUTO 33004KT 10SM CLR 29/24 A2993 RMK AO2
KBOW 212255Z AUTO 33004KT 10SM CLR 29/24 A2993 RMK AO2 LTG DSNT SE AND S
KBOW 212235Z AUTO 33005KT 10SM CLR 29/23 A2992 RMK AO2 LTG DSNT SE AND S
KBOW 212215Z AUTO 32006KT 9SM CLR 30/23 A2991 RMK AO2 LTG DSNT SE AND S
KBOW 212135Z AUTO 32008G13KT 10SM CLR 30/23 A2992 RMK AO2 LTG DSNT SE
KBOW 212050Z 34006KT 10SM SKC 29/24 A2992
KBOW 211950Z 34006KT 10SM SKC 29/26 A2992
KBOW 211855Z 33005KT 10SM BKN070 27/26 A2995
KBOW 211759Z 35005KT 9SM -RA BKN050 25/25 A2996
KBOW 211735Z 33003KT 4SM -RA BKN036 25/25 A2997
KBOW 211710Z COR 31012G22KT 1 1/4SM RA BKN006 BKN037 OVC060 24/24 A2997
KBOW 211650Z 32010G17KT 9SM VCTS BKN033 BKN049 29/23 A2997
KBOW 211555Z 25010KT 10SM BKN030 30/23 A2997
KBOW 211550Z 24013KT 10SM BKN035 31/24 A2997
KBOW 211459Z 30009KT 10SM SKC 31/22 A2997
KBOW 211350Z 27008KT 10SM BKN055 29/24 A2997
KBOW 211250Z 23005KT 10SM SKC 27/26 A2998
KBOW 211150Z 21004KT 10SM SKC 25/24 A2997
KBOW 211130Z 20005KT 10SM FEW022 24/24 A2996
KBOW 211115Z AUTO 00000KT 8SM SCT022 SCT029 24/ A2996 RMK AO2
KBOW 211055Z AUTO 18003KT 8SM BKN021 BKN028 24/ A2996 RMK AO2